sensor_id;sensor_type;location;lat;lon;timestamp;P1;durP1;ratioP1;P2;durP2;ratioP2
59938;SDS011;45801;51.810;19.444;2023-04-06T00:02:25;21.10;;;11.70;;
59938;SDS011;45801;51.810;19.444;2023-04-06T00:04:51;20.30;;;12.00;;
59938;SDS011;45801;51.810;19.444;2023-04-06T00:07:18;20.30;;;12.30;;
59938;SDS011;45801;51.810;19.444;2023-04-06T00:09:44;19.40;;;11.50;;
59938;SDS011;45801;51.810;19.444;2023-04-06T00:12:11;21.10;;;13.20;;
59938;SDS011;45801;51.810;19.444;2023-04-06T00:14:37;21.10;;;11.60;;
59938;SDS011;45801;51.810;19.444;2023-04-06T00:17:04;21.60;;;11.80;;
59938;SDS011;45801;51.810;19.444;2023-04-06T00:19:30;21.60;;;11.40;;
59938;SDS011;45801;51.810;19.444;2023-04-06T00:21:57;20.20;;;11.80;;
59938;SDS011;45801;51.810;19.444;2023-04-06T00:24:23;20.70;;;12.00;;
59938;SDS011;45801;51.810;19.444;2023-04-06T00:26:50;19.70;;;11.60;;
59938;SDS011;45801;51.810;19.444;2023-04-06T00:29:17;19.70;;;11.30;;
59938;SDS011;45801;51.810;19.444;2023-04-06T00:31:43;22.20;;;12.80;;
59938;SDS011;45801;51.810;19.444;2023-04-06T00:34:10;19.50;;;11.60;;
59938;SDS011;45801;51.810;19.444;2023-04-06T00:36:36;22.90;;;12.80;;
59938;SDS011;45801;51.810;19.444;2023-04-06T00:39:03;22.10;;;12.20;;
59938;SDS011;45801;51.810;19.444;2023-04-06T00:41:29;21.90;;;12.40;;
59938;SDS011;45801;51.810;19.444;2023-04-06T00:43:56;19.00;;;11.30;;
59938;SDS011;45801;51.810;19.444;2023-04-06T00:46:23;18.30;;;11.20;;
59938;SDS011;45801;51.810;19.444;2023-04-06T00:48:49;19.40;;;11.40;;
59938;SDS011;45801;51.810;19.444;2023-04-06T00:51:16;21.50;;;12.10;;
59938;SDS011;45801;51.810;19.444;2023-04-06T00:53:43;21.10;;;12.50;;
59938;SDS011;45801;51.810;19.444;2023-04-06T00:56:09;20.10;;;11.70;;
59938;SDS011;45801;51.810;19.444;2023-04-06T00:58:36;21.00;;;12.10;;
59938;SDS011;45801;51.810;19.444;2023-04-06T01:01:06;20.30;;;12.50;;
59938;SDS011;45801;51.810;19.444;2023-04-06T01:03:33;20.10;;;12.30;;
59938;SDS011;45801;51.810;19.444;2023-04-06T01:05:59;19.80;;;12.00;;
59938;SDS011;45801;51.810;19.444;2023-04-06T01:08:26;18.20;;;11.50;;
59938;SDS011;45801;51.810;19.444;2023-04-06T01:10:53;20.70;;;12.00;;
59938;SDS011;45801;51.810;19.444;2023-04-06T01:13:19;19.60;;;11.60;;
59938;SDS011;45801;51.810;19.444;2023-04-06T01:15:46;19.70;;;12.00;;
59938;SDS011;45801;51.810;19.444;2023-04-06T01:18:13;20.10;;;11.60;;
59938;SDS011;45801;51.810;19.444;2023-04-06T01:20:40;23.00;;;12.90;;
59938;SDS011;45801;51.810;19.444;2023-04-06T01:23:06;19.30;;;11.60;;
59938;SDS011;45801;51.810;19.444;2023-04-06T01:25:33;22.10;;;13.10;;
59938;SDS011;45801;51.810;19.444;2023-04-06T01:27:59;21.80;;;13.50;;
59938;SDS011;45801;51.810;19.444;2023-04-06T01:30:26;20.20;;;12.30;;
59938;SDS011;45801;51.810;19.444;2023-04-06T01:32:52;20.20;;;12.20;;
59938;SDS011;45801;51.810;19.444;2023-04-06T01:35:19;21.20;;;12.70;;
59938;SDS011;45801;51.810;19.444;2023-04-06T01:37:46;19.60;;;12.00;;
59938;SDS011;45801;51.810;19.444;2023-04-06T01:40:13;19.60;;;12.20;;
59938;SDS011;45801;51.810;19.444;2023-04-06T01:42:40;22.00;;;14.00;;
59938;SDS011;45801;51.810;19.444;2023-04-06T01:45:06;21.30;;;12.30;;
59938;SDS011;45801;51.810;19.444;2023-04-06T01:47:33;22.90;;;13.40;;
59938;SDS011;45801;51.810;19.444;2023-04-06T01:50:00;21.10;;;11.60;;
59938;SDS011;45801;51.810;19.444;2023-04-06T01:52:26;19.30;;;10.70;;
59938;SDS011;45801;51.810;19.444;2023-04-06T01:54:53;20.10;;;12.20;;
59938;SDS011;45801;51.810;19.444;2023-04-06T01:57:19;17.20;;;11.40;;
59938;SDS011;45801;51.810;19.444;2023-04-06T01:59:52;24.00;;;10.80;;
59938;SDS011;45801;51.810;19.444;2023-04-06T02:02:19;19.30;;;12.40;;
59938;SDS011;45801;51.810;19.444;2023-04-06T02:04:45;19.60;;;11.70;;
59938;SDS011;45801;51.810;19.444;2023-04-06T02:07:12;20.40;;;12.90;;
59938;SDS011;45801;51.810;19.444;2023-04-06T02:09:38;24.30;;;12.70;;
59938;SDS011;45801;51.810;19.444;2023-04-06T02:12:05;21.10;;;12.70;;
59938;SDS011;45801;51.810;19.444;2023-04-06T02:14:32;21.00;;;13.20;;
59938;SDS011;45801;51.810;19.444;2023-04-06T02:16:59;21.40;;;12.70;;
59938;SDS011;45801;51.810;19.444;2023-04-06T02:19:25;19.20;;;11.10;;
59938;SDS011;45801;51.810;19.444;2023-04-06T02:21:52;23.40;;;13.50;;
59938;SDS011;45801;51.810;19.444;2023-04-06T02:24:18;21.80;;;12.00;;
59938;SDS011;45801;51.810;19.444;2023-04-06T02:26:45;23.60;;;12.90;;
59938;SDS011;45801;51.810;19.444;2023-04-06T02:29:11;20.60;;;11.60;;
59938;SDS011;45801;51.810;19.444;2023-04-06T02:31:38;20.20;;;12.30;;
59938;SDS011;45801;51.810;19.444;2023-04-06T02:34:04;22.70;;;13.50;;
59938;SDS011;45801;51.810;19.444;2023-04-06T02:36:31;22.10;;;11.90;;
59938;SDS011;45801;51.810;19.444;2023-04-06T02:38:57;20.30;;;12.60;;
59938;SDS011;45801;51.810;19.444;2023-04-06T02:41:23;21.20;;;12.50;;
59938;SDS011;45801;51.810;19.444;2023-04-06T02:43:50;20.60;;;14.10;;
59938;SDS011;45801;51.810;19.444;2023-04-06T02:46:16;21.30;;;13.20;;
59938;SDS011;45801;51.810;19.444;2023-04-06T02:48:43;21.40;;;12.50;;
59938;SDS011;45801;51.810;19.444;2023-04-06T02:51:09;24.10;;;13.00;;
59938;SDS011;45801;51.810;19.444;2023-04-06T02:53:36;25.70;;;13.90;;
59938;SDS011;45801;51.810;19.444;2023-04-06T02:56:02;28.90;;;14.40;;
59938;SDS011;45801;51.810;19.444;2023-04-06T02:58:29;23.10;;;14.60;;
59938;SDS011;45801;51.810;19.444;2023-04-06T03:00:55;25.00;;;14.60;;
59938;SDS011;45801;51.810;19.444;2023-04-06T03:03:22;23.60;;;13.50;;
59938;SDS011;45801;51.810;19.444;2023-04-06T03:05:48;28.10;;;15.20;;
59938;SDS011;45801;51.810;19.444;2023-04-06T03:08:15;27.40;;;16.40;;
59938;SDS011;45801;51.810;19.444;2023-04-06T03:10:41;27.60;;;15.60;;
59938;SDS011;45801;51.810;19.444;2023-04-06T03:13:08;22.90;;;14.10;;
59938;SDS011;45801;51.810;19.444;2023-04-06T03:15:34;23.70;;;14.50;;
59938;SDS011;45801;51.810;19.444;2023-04-06T03:18:01;26.30;;;14.80;;
59938;SDS011;45801;51.810;19.444;2023-04-06T03:20:28;22.90;;;13.90;;
59938;SDS011;45801;51.810;19.444;2023-04-06T03:22:54;25.70;;;14.70;;
59938;SDS011;45801;51.810;19.444;2023-04-06T03:25:21;27.50;;;14.90;;
59938;SDS011;45801;51.810;19.444;2023-04-06T03:27:48;28.20;;;14.90;;
59938;SDS011;45801;51.810;19.444;2023-04-06T03:30:14;26.40;;;13.90;;
59938;SDS011;45801;51.810;19.444;2023-04-06T03:32:43;26.40;;;14.90;;
59938;SDS011;45801;51.810;19.444;2023-04-06T03:35:10;24.00;;;14.40;;
59938;SDS011;45801;51.810;19.444;2023-04-06T03:37:37;24.50;;;15.10;;
59938;SDS011;45801;51.810;19.444;2023-04-06T03:40:04;27.60;;;15.10;;
59938;SDS011;45801;51.810;19.444;2023-04-06T03:42:31;33.70;;;18.20;;
59938;SDS011;45801;51.810;19.444;2023-04-06T03:44:58;29.50;;;15.40;;
59938;SDS011;45801;51.810;19.444;2023-04-06T03:47:25;27.30;;;14.30;;
59938;SDS011;45801;51.810;19.444;2023-04-06T03:49:51;24.20;;;14.20;;
59938;SDS011;45801;51.810;19.444;2023-04-06T03:52:18;25.80;;;15.50;;
59938;SDS011;45801;51.810;19.444;2023-04-06T03:54:44;26.40;;;14.60;;
59938;SDS011;45801;51.810;19.444;2023-04-06T03:57:11;27.00;;;14.90;;
59938;SDS011;45801;51.810;19.444;2023-04-06T03:59:37;25.60;;;13.30;;
59938;SDS011;45801;51.810;19.444;2023-04-06T04:02:04;23.60;;;13.50;;
59938;SDS011;45801;51.810;19.444;2023-04-06T04:04:30;25.50;;;14.50;;
59938;SDS011;45801;51.810;19.444;2023-04-06T04:06:57;26.20;;;14.60;;
59938;SDS011;45801;51.810;19.444;2023-04-06T04:09:23;24.80;;;14.00;;
59938;SDS011;45801;51.810;19.444;2023-04-06T04:11:50;27.70;;;14.20;;
59938;SDS011;45801;51.810;19.444;2023-04-06T04:14:16;20.70;;;13.20;;
59938;SDS011;45801;51.810;19.444;2023-04-06T04:16:44;24.00;;;14.60;;
59938;SDS011;45801;51.810;19.444;2023-04-06T04:19:11;25.80;;;15.80;;
59938;SDS011;45801;51.810;19.444;2023-04-06T04:21:44;29.60;;;18.50;;
59938;SDS011;45801;51.810;19.444;2023-04-06T04:24:12;30.00;;;16.70;;
59938;SDS011;45801;51.810;19.444;2023-04-06T04:26:39;29.30;;;17.30;;
59938;SDS011;45801;51.810;19.444;2023-04-06T04:29:06;29.40;;;16.40;;
59938;SDS011;45801;51.810;19.444;2023-04-06T04:31:33;26.00;;;15.50;;
59938;SDS011;45801;51.810;19.444;2023-04-06T04:33:59;28.60;;;16.50;;
59938;SDS011;45801;51.810;19.444;2023-04-06T04:36:26;21.80;;;13.50;;
59938;SDS011;45801;51.810;19.444;2023-04-06T04:38:52;26.20;;;15.40;;
59938;SDS011;45801;51.810;19.444;2023-04-06T04:41:19;26.40;;;17.10;;
59938;SDS011;45801;51.810;19.444;2023-04-06T04:43:45;26.20;;;16.00;;
59938;SDS011;45801;51.810;19.444;2023-04-06T04:46:12;24.70;;;17.20;;
59938;SDS011;45801;51.810;19.444;2023-04-06T04:48:38;25.20;;;16.40;;
59938;SDS011;45801;51.810;19.444;2023-04-06T04:51:05;23.10;;;14.50;;
59938;SDS011;45801;51.810;19.444;2023-04-06T04:53:32;24.60;;;15.20;;
59938;SDS011;45801;51.810;19.444;2023-04-06T04:55:58;25.90;;;16.20;;
59938;SDS011;45801;51.810;19.444;2023-04-06T04:58:25;24.10;;;16.10;;
59938;SDS011;45801;51.810;19.444;2023-04-06T05:00:52;21.10;;;13.90;;
59938;SDS011;45801;51.810;19.444;2023-04-06T05:03:23;23.90;;;14.80;;
59938;SDS011;45801;51.810;19.444;2023-04-06T05:05:50;23.80;;;14.50;;
59938;SDS011;45801;51.810;19.444;2023-04-06T05:08:17;25.20;;;14.70;;
59938;SDS011;45801;51.810;19.444;2023-04-06T05:10:44;23.70;;;15.30;;
59938;SDS011;45801;51.810;19.444;2023-04-06T05:13:11;26.00;;;15.50;;
59938;SDS011;45801;51.810;19.444;2023-04-06T05:15:38;24.60;;;15.00;;
59938;SDS011;45801;51.810;19.444;2023-04-06T05:18:06;27.90;;;16.80;;
59938;SDS011;45801;51.810;19.444;2023-04-06T05:20:34;27.40;;;16.60;;
59938;SDS011;45801;51.810;19.444;2023-04-06T05:23:01;30.50;;;16.40;;
59938;SDS011;45801;51.810;19.444;2023-04-06T05:25:28;30.70;;;18.30;;
59938;SDS011;45801;51.810;19.444;2023-04-06T05:27:54;27.70;;;17.90;;
59938;SDS011;45801;51.810;19.444;2023-04-06T05:30:21;29.20;;;17.30;;
59938;SDS011;45801;51.810;19.444;2023-04-06T05:32:48;30.00;;;18.40;;
59938;SDS011;45801;51.810;19.444;2023-04-06T05:35:14;30.70;;;18.80;;
59938;SDS011;45801;51.810;19.444;2023-04-06T05:37:41;31.50;;;18.80;;
59938;SDS011;45801;51.810;19.444;2023-04-06T05:40:08;27.90;;;17.80;;
59938;SDS011;45801;51.810;19.444;2023-04-06T05:42:38;29.00;;;17.70;;
59938;SDS011;45801;51.810;19.444;2023-04-06T05:45:05;28.60;;;17.50;;
59938;SDS011;45801;51.810;19.444;2023-04-06T05:47:32;30.40;;;17.90;;
59938;SDS011;45801;51.810;19.444;2023-04-06T05:49:59;26.50;;;17.20;;
59938;SDS011;45801;51.810;19.444;2023-04-06T05:52:26;27.70;;;17.40;;
59938;SDS011;45801;51.810;19.444;2023-04-06T05:54:53;27.80;;;18.90;;
59938;SDS011;45801;51.810;19.444;2023-04-06T05:57:20;28.30;;;18.10;;
59938;SDS011;45801;51.810;19.444;2023-04-06T05:59:46;27.90;;;17.60;;
59938;SDS011;45801;51.810;19.444;2023-04-06T06:02:13;27.90;;;16.20;;
59938;SDS011;45801;51.810;19.444;2023-04-06T06:04:40;29.40;;;16.40;;
59938;SDS011;45801;51.810;19.444;2023-04-06T06:07:07;26.50;;;16.00;;
59938;SDS011;45801;51.810;19.444;2023-04-06T06:09:34;28.60;;;16.00;;
59938;SDS011;45801;51.810;19.444;2023-04-06T06:12:01;29.40;;;16.60;;
59938;SDS011;45801;51.810;19.444;2023-04-06T06:14:28;30.90;;;16.50;;
59938;SDS011;45801;51.810;19.444;2023-04-06T06:16:57;26.50;;;16.50;;
59938;SDS011;45801;51.810;19.444;2023-04-06T06:19:23;29.20;;;16.40;;
59938;SDS011;45801;51.810;19.444;2023-04-06T06:21:50;28.60;;;18.00;;
59938;SDS011;45801;51.810;19.444;2023-04-06T06:24:16;26.10;;;17.40;;
59938;SDS011;45801;51.810;19.444;2023-04-06T06:26:43;30.00;;;17.70;;
59938;SDS011;45801;51.810;19.444;2023-04-06T06:29:09;28.50;;;16.40;;
59938;SDS011;45801;51.810;19.444;2023-04-06T06:31:36;26.50;;;15.50;;
59938;SDS011;45801;51.810;19.444;2023-04-06T06:34:02;23.10;;;14.60;;
59938;SDS011;45801;51.810;19.444;2023-04-06T06:36:29;27.00;;;14.70;;
59938;SDS011;45801;51.810;19.444;2023-04-06T06:38:57;25.10;;;14.90;;
59938;SDS011;45801;51.810;19.444;2023-04-06T06:41:24;23.80;;;16.20;;
59938;SDS011;45801;51.810;19.444;2023-04-06T06:43:52;18.30;;;11.40;;
59938;SDS011;45801;51.810;19.444;2023-04-06T06:46:19;21.20;;;13.10;;
59938;SDS011;45801;51.810;19.444;2023-04-06T06:48:46;21.90;;;11.90;;
59938;SDS011;45801;51.810;19.444;2023-04-06T06:51:13;19.80;;;11.80;;
59938;SDS011;45801;51.810;19.444;2023-04-06T06:53:39;21.00;;;11.30;;
59938;SDS011;45801;51.810;19.444;2023-04-06T06:56:06;21.00;;;11.60;;
59938;SDS011;45801;51.810;19.444;2023-04-06T06:58:32;24.80;;;12.70;;
59938;SDS011;45801;51.810;19.444;2023-04-06T07:00:58;22.00;;;12.60;;
59938;SDS011;45801;51.810;19.444;2023-04-06T07:03:25;22.00;;;12.90;;
59938;SDS011;45801;51.810;19.444;2023-04-06T07:05:52;23.10;;;12.80;;
59938;SDS011;45801;51.810;19.444;2023-04-06T07:08:20;27.90;;;15.30;;
59938;SDS011;45801;51.810;19.444;2023-04-06T07:10:48;22.40;;;14.30;;
59938;SDS011;45801;51.810;19.444;2023-04-06T07:13:17;26.40;;;14.70;;
59938;SDS011;45801;51.810;19.444;2023-04-06T07:15:48;27.70;;;14.80;;
59938;SDS011;45801;51.810;19.444;2023-04-06T07:18:19;24.20;;;14.30;;
59938;SDS011;45801;51.810;19.444;2023-04-06T07:20:46;21.10;;;12.90;;
59938;SDS011;45801;51.810;19.444;2023-04-06T07:23:12;23.00;;;14.00;;
59938;SDS011;45801;51.810;19.444;2023-04-06T07:25:39;24.90;;;13.90;;
59938;SDS011;45801;51.810;19.444;2023-04-06T07:28:05;23.00;;;12.70;;
59938;SDS011;45801;51.810;19.444;2023-04-06T07:30:32;22.20;;;13.10;;
59938;SDS011;45801;51.810;19.444;2023-04-06T07:32:59;20.80;;;11.40;;
59938;SDS011;45801;51.810;19.444;2023-04-06T07:35:26;21.00;;;11.80;;
59938;SDS011;45801;51.810;19.444;2023-04-06T07:37:53;18.00;;;11.50;;
59938;SDS011;45801;51.810;19.444;2023-04-06T07:40:20;16.40;;;9.80;;
59938;SDS011;45801;51.810;19.444;2023-04-06T07:42:47;18.70;;;11.30;;
59938;SDS011;45801;51.810;19.444;2023-04-06T07:45:14;15.60;;;9.10;;
59938;SDS011;45801;51.810;19.444;2023-04-06T07:47:42;18.20;;;11.60;;
59938;SDS011;45801;51.810;19.444;2023-04-06T07:50:09;17.80;;;10.50;;
59938;SDS011;45801;51.810;19.444;2023-04-06T07:52:36;22.20;;;12.30;;
59938;SDS011;45801;51.810;19.444;2023-04-06T07:55:02;16.80;;;9.10;;
59938;SDS011;45801;51.810;19.444;2023-04-06T07:57:29;20.40;;;10.30;;
59938;SDS011;45801;51.810;19.444;2023-04-06T07:59:56;13.50;;;8.00;;
59938;SDS011;45801;51.810;19.444;2023-04-06T08:02:22;13.40;;;6.80;;
59938;SDS011;45801;51.810;19.444;2023-04-06T08:04:49;11.30;;;6.30;;
59938;SDS011;45801;51.810;19.444;2023-04-06T08:07:16;11.10;;;6.20;;
59938;SDS011;45801;51.810;19.444;2023-04-06T08:09:42;11.90;;;5.20;;
59938;SDS011;45801;51.810;19.444;2023-04-06T08:12:08;10.90;;;6.20;;
59938;SDS011;45801;51.810;19.444;2023-04-06T08:14:35;13.40;;;6.40;;
59938;SDS011;45801;51.810;19.444;2023-04-06T08:17:02;13.20;;;6.40;;
59938;SDS011;45801;51.810;19.444;2023-04-06T08:19:28;11.40;;;6.40;;
59938;SDS011;45801;51.810;19.444;2023-04-06T08:21:55;9.80;;;4.60;;
59938;SDS011;45801;51.810;19.444;2023-04-06T08:24:21;9.40;;;4.10;;
59938;SDS011;45801;51.810;19.444;2023-04-06T08:26:47;8.00;;;4.10;;
59938;SDS011;45801;51.810;19.444;2023-04-06T08:29:14;8.10;;;4.00;;
59938;SDS011;45801;51.810;19.444;2023-04-06T08:31:40;8.70;;;3.90;;
59938;SDS011;45801;51.810;19.444;2023-04-06T08:34:07;10.50;;;4.10;;
59938;SDS011;45801;51.810;19.444;2023-04-06T08:36:33;9.50;;;3.70;;
59938;SDS011;45801;51.810;19.444;2023-04-06T08:39:00;8.80;;;3.10;;
59938;SDS011;45801;51.810;19.444;2023-04-06T08:41:28;7.40;;;2.60;;
59938;SDS011;45801;51.810;19.444;2023-04-06T08:43:58;7.20;;;2.80;;
59938;SDS011;45801;51.810;19.444;2023-04-06T08:46:26;5.80;;;2.20;;
59938;SDS011;45801;51.810;19.444;2023-04-06T08:48:56;8.40;;;3.80;;
59938;SDS011;45801;51.810;19.444;2023-04-06T08:51:24;7.80;;;3.20;;
59938;SDS011;45801;51.810;19.444;2023-04-06T08:53:55;8.10;;;3.40;;
59938;SDS011;45801;51.810;19.444;2023-04-06T08:56:23;7.80;;;3.70;;
59938;SDS011;45801;51.810;19.444;2023-04-06T08:58:54;8.20;;;4.00;;
59938;SDS011;45801;51.810;19.444;2023-04-06T09:01:23;8.20;;;3.80;;
59938;SDS011;45801;51.810;19.444;2023-04-06T09:03:57;10.80;;;5.00;;
59938;SDS011;45801;51.810;19.444;2023-04-06T09:06:25;9.60;;;3.50;;
59938;SDS011;45801;51.810;19.444;2023-04-06T09:08:55;9.30;;;4.30;;
59938;SDS011;45801;51.810;19.444;2023-04-06T09:11:22;9.70;;;4.70;;
59938;SDS011;45801;51.810;19.444;2023-04-06T09:13:51;8.10;;;4.00;;
59938;SDS011;45801;51.810;19.444;2023-04-06T09:16:19;7.80;;;4.10;;
59938;SDS011;45801;51.810;19.444;2023-04-06T09:18:46;10.00;;;4.80;;
59938;SDS011;45801;51.810;19.444;2023-04-06T09:21:13;11.30;;;5.00;;
59938;SDS011;45801;51.810;19.444;2023-04-06T09:23:43;9.40;;;4.60;;
59938;SDS011;45801;51.810;19.444;2023-04-06T09:26:10;10.30;;;4.70;;
59938;SDS011;45801;51.810;19.444;2023-04-06T09:29:21;8.60;;;4.30;;
59938;SDS011;45801;51.810;19.444;2023-04-06T09:31:32;10.60;;;5.20;;
59938;SDS011;45801;51.810;19.444;2023-04-06T09:33:59;9.20;;;4.10;;
59938;SDS011;45801;51.810;19.444;2023-04-06T09:36:33;11.80;;;4.70;;
59938;SDS011;45801;51.810;19.444;2023-04-06T09:39:02;8.20;;;3.80;;
59938;SDS011;45801;51.810;19.444;2023-04-06T09:41:30;7.70;;;3.50;;
59938;SDS011;45801;51.810;19.444;2023-04-06T09:44:05;8.70;;;4.00;;
59938;SDS011;45801;51.810;19.444;2023-04-06T09:46:33;7.70;;;4.10;;
59938;SDS011;45801;51.810;19.444;2023-04-06T09:49:02;8.10;;;3.30;;
59938;SDS011;45801;51.810;19.444;2023-04-06T09:51:30;7.30;;;3.80;;
59938;SDS011;45801;51.810;19.444;2023-04-06T09:54:01;7.80;;;3.70;;
59938;SDS011;45801;51.810;19.444;2023-04-06T09:56:31;8.30;;;3.90;;
59938;SDS011;45801;51.810;19.444;2023-04-06T09:59:05;6.90;;;2.80;;
59938;SDS011;45801;51.810;19.444;2023-04-06T10:01:39;9.70;;;4.40;;
59938;SDS011;45801;51.810;19.444;2023-04-06T10:06:49;8.00;;;3.40;;
59938;SDS011;45801;51.810;19.444;2023-04-06T10:09:19;8.10;;;4.10;;
59938;SDS011;45801;51.810;19.444;2023-04-06T10:11:49;7.70;;;3.70;;
59938;SDS011;45801;51.810;19.444;2023-04-06T10:14:16;7.40;;;3.90;;
59938;SDS011;45801;51.810;19.444;2023-04-06T10:16:43;8.30;;;3.30;;
59938;SDS011;45801;51.810;19.444;2023-04-06T10:19:12;8.00;;;4.00;;
59938;SDS011;45801;51.810;19.444;2023-04-06T10:21:43;8.40;;;3.70;;
59938;SDS011;45801;51.810;19.444;2023-04-06T10:24:15;6.90;;;2.90;;
59938;SDS011;45801;51.810;19.444;2023-04-06T10:26:43;8.60;;;4.30;;
59938;SDS011;45801;51.810;19.444;2023-04-06T10:29:09;9.60;;;3.90;;
59938;SDS011;45801;51.810;19.444;2023-04-06T10:31:39;7.40;;;3.60;;
59938;SDS011;45801;51.810;19.444;2023-04-06T10:34:09;7.80;;;3.60;;
59938;SDS011;45801;51.810;19.444;2023-04-06T10:36:36;11.10;;;4.40;;
59938;SDS011;45801;51.810;19.444;2023-04-06T10:39:03;8.20;;;4.30;;
59938;SDS011;45801;51.810;19.444;2023-04-06T10:41:36;8.30;;;4.10;;
59938;SDS011;45801;51.810;19.444;2023-04-06T10:44:08;7.30;;;3.40;;
59938;SDS011;45801;51.810;19.444;2023-04-06T10:46:51;9.80;;;5.10;;
59938;SDS011;45801;51.810;19.444;2023-04-06T10:49:21;8.90;;;4.60;;
59938;SDS011;45801;51.810;19.444;2023-04-06T10:51:54;10.40;;;5.10;;
59938;SDS011;45801;51.810;19.444;2023-04-06T10:54:23;7.50;;;4.10;;
59938;SDS011;45801;51.810;19.444;2023-04-06T10:56:52;8.70;;;4.60;;
59938;SDS011;45801;51.810;19.444;2023-04-06T10:59:20;9.10;;;4.90;;
59938;SDS011;45801;51.810;19.444;2023-04-06T11:01:47;8.00;;;4.20;;
59938;SDS011;45801;51.810;19.444;2023-04-06T11:04:17;9.20;;;4.80;;
59938;SDS011;45801;51.810;19.444;2023-04-06T11:06:47;9.40;;;4.40;;
59938;SDS011;45801;51.810;19.444;2023-04-06T11:09:25;9.80;;;6.40;;
59938;SDS011;45801;51.810;19.444;2023-04-06T11:11:57;7.90;;;3.90;;
59938;SDS011;45801;51.810;19.444;2023-04-06T11:14:24;11.00;;;6.30;;
59938;SDS011;45801;51.810;19.444;2023-04-06T11:16:52;10.20;;;6.10;;
59938;SDS011;45801;51.810;19.444;2023-04-06T11:19:19;10.00;;;5.80;;
59938;SDS011;45801;51.810;19.444;2023-04-06T11:21:46;11.40;;;5.30;;
59938;SDS011;45801;51.810;19.444;2023-04-06T11:24:15;8.10;;;4.60;;
59938;SDS011;45801;51.810;19.444;2023-04-06T11:26:44;10.10;;;6.00;;
59938;SDS011;45801;51.810;19.444;2023-04-06T11:29:11;9.40;;;4.60;;
59938;SDS011;45801;51.810;19.444;2023-04-06T11:31:42;9.10;;;5.40;;
59938;SDS011;45801;51.810;19.444;2023-04-06T11:34:12;9.60;;;6.00;;
59938;SDS011;45801;51.810;19.444;2023-04-06T11:36:44;10.80;;;5.60;;
59938;SDS011;45801;51.810;19.444;2023-04-06T11:39:13;8.90;;;5.30;;
59938;SDS011;45801;51.810;19.444;2023-04-06T11:41:48;8.50;;;5.30;;
59938;SDS011;45801;51.810;19.444;2023-04-06T11:44:15;12.30;;;9.50;;
59938;SDS011;45801;51.810;19.444;2023-04-06T11:46:53;14.10;;;10.30;;
59938;SDS011;45801;51.810;19.444;2023-04-06T11:49:20;11.80;;;6.80;;
59938;SDS011;45801;51.810;19.444;2023-04-06T11:51:46;8.80;;;5.20;;
59938;SDS011;45801;51.810;19.444;2023-04-06T11:54:13;10.60;;;5.50;;
59938;SDS011;45801;51.810;19.444;2023-04-06T11:56:39;10.30;;;5.30;;
59938;SDS011;45801;51.810;19.444;2023-04-06T11:59:06;8.20;;;5.10;;
59938;SDS011;45801;51.810;19.444;2023-04-06T12:01:33;8.90;;;5.00;;
59938;SDS011;45801;51.810;19.444;2023-04-06T12:04:00;10.10;;;5.20;;
59938;SDS011;45801;51.810;19.444;2023-04-06T12:06:26;9.30;;;4.60;;
59938;SDS011;45801;51.810;19.444;2023-04-06T12:08:53;10.80;;;5.50;;
59938;SDS011;45801;51.810;19.444;2023-04-06T12:11:19;10.20;;;5.70;;
59938;SDS011;45801;51.810;19.444;2023-04-06T12:13:49;9.50;;;5.40;;
59938;SDS011;45801;51.810;19.444;2023-04-06T12:16:15;8.60;;;4.90;;
59938;SDS011;45801;51.810;19.444;2023-04-06T12:18:41;11.00;;;5.60;;
59938;SDS011;45801;51.810;19.444;2023-04-06T12:21:08;9.50;;;6.20;;
59938;SDS011;45801;51.810;19.444;2023-04-06T12:23:35;11.00;;;7.80;;
59938;SDS011;45801;51.810;19.444;2023-04-06T12:26:02;13.00;;;6.20;;
59938;SDS011;45801;51.810;19.444;2023-04-06T12:28:29;9.50;;;5.00;;
59938;SDS011;45801;51.810;19.444;2023-04-06T12:30:55;10.30;;;5.50;;
59938;SDS011;45801;51.810;19.444;2023-04-06T12:33:22;7.90;;;4.20;;
59938;SDS011;45801;51.810;19.444;2023-04-06T12:35:48;11.30;;;6.00;;
59938;SDS011;45801;51.810;19.444;2023-04-06T12:38:20;10.10;;;5.80;;
59938;SDS011;45801;51.810;19.444;2023-04-06T12:40:46;11.50;;;5.50;;
59938;SDS011;45801;51.810;19.444;2023-04-06T12:43:13;12.40;;;6.30;;
59938;SDS011;45801;51.810;19.444;2023-04-06T12:45:39;9.30;;;5.50;;
59938;SDS011;45801;51.810;19.444;2023-04-06T12:48:06;10.20;;;5.80;;
59938;SDS011;45801;51.810;19.444;2023-04-06T12:50:33;10.80;;;5.90;;
59938;SDS011;45801;51.810;19.444;2023-04-06T12:52:59;8.50;;;4.60;;
59938;SDS011;45801;51.810;19.444;2023-04-06T12:55:28;10.00;;;5.00;;
59938;SDS011;45801;51.810;19.444;2023-04-06T12:57:55;9.60;;;5.00;;
59938;SDS011;45801;51.810;19.444;2023-04-06T13:00:23;8.80;;;4.70;;
59938;SDS011;45801;51.810;19.444;2023-04-06T13:02:50;9.30;;;5.00;;
59938;SDS011;45801;51.810;19.444;2023-04-06T13:05:16;9.40;;;4.90;;
59938;SDS011;45801;51.810;19.444;2023-04-06T13:07:44;9.40;;;3.60;;
59938;SDS011;45801;51.810;19.444;2023-04-06T13:10:12;12.90;;;5.20;;
59938;SDS011;45801;51.810;19.444;2023-04-06T13:12:39;9.60;;;5.40;;
59938;SDS011;45801;51.810;19.444;2023-04-06T13:15:05;11.40;;;6.00;;
59938;SDS011;45801;51.810;19.444;2023-04-06T13:17:32;9.90;;;5.50;;
59938;SDS011;45801;51.810;19.444;2023-04-06T13:19:59;11.70;;;5.30;;
59938;SDS011;45801;51.810;19.444;2023-04-06T13:22:25;9.30;;;5.40;;
59938;SDS011;45801;51.810;19.444;2023-04-06T13:24:53;11.70;;;6.00;;
59938;SDS011;45801;51.810;19.444;2023-04-06T13:27:20;11.40;;;5.40;;
59938;SDS011;45801;51.810;19.444;2023-04-06T13:29:47;10.60;;;5.40;;
59938;SDS011;45801;51.810;19.444;2023-04-06T13:32:13;9.90;;;5.20;;
59938;SDS011;45801;51.810;19.444;2023-04-06T13:34:40;9.20;;;5.10;;
59938;SDS011;45801;51.810;19.444;2023-04-06T13:37:12;9.20;;;5.20;;
59938;SDS011;45801;51.810;19.444;2023-04-06T13:39:39;10.60;;;5.00;;
59938;SDS011;45801;51.810;19.444;2023-04-06T13:42:06;10.60;;;5.10;;
59938;SDS011;45801;51.810;19.444;2023-04-06T13:44:33;10.20;;;5.20;;
59938;SDS011;45801;51.810;19.444;2023-04-06T13:46:59;10.10;;;5.50;;
59938;SDS011;45801;51.810;19.444;2023-04-06T13:49:25;11.30;;;5.80;;
59938;SDS011;45801;51.810;19.444;2023-04-06T13:51:52;10.30;;;5.70;;
59938;SDS011;45801;51.810;19.444;2023-04-06T13:54:19;9.90;;;5.60;;
59938;SDS011;45801;51.810;19.444;2023-04-06T13:56:46;11.10;;;5.80;;
59938;SDS011;45801;51.810;19.444;2023-04-06T13:59:12;9.30;;;5.10;;
59938;SDS011;45801;51.810;19.444;2023-04-06T14:01:39;12.30;;;5.90;;
59938;SDS011;45801;51.810;19.444;2023-04-06T14:04:05;11.00;;;5.80;;
59938;SDS011;45801;51.810;19.444;2023-04-06T14:06:32;9.00;;;4.20;;
59938;SDS011;45801;51.810;19.444;2023-04-06T14:08:59;11.10;;;5.80;;
59938;SDS011;45801;51.810;19.444;2023-04-06T14:11:25;10.70;;;5.90;;
59938;SDS011;45801;51.810;19.444;2023-04-06T14:13:52;10.60;;;5.60;;
59938;SDS011;45801;51.810;19.444;2023-04-06T14:16:18;11.40;;;6.70;;
59938;SDS011;45801;51.810;19.444;2023-04-06T14:18:46;10.80;;;6.00;;
59938;SDS011;45801;51.810;19.444;2023-04-06T14:21:13;10.20;;;6.40;;
59938;SDS011;45801;51.810;19.444;2023-04-06T14:23:39;11.90;;;6.40;;